sensor_id;sensor_type;location;lat;lon;timestamp;temperature;humidity
15554;DHT22;7878;44.632;10.942;2023-07-28T00:01:16;25.50;99.90
15554;DHT22;7878;44.632;10.942;2023-07-28T00:03:41;25.50;99.90
15554;DHT22;7878;44.632;10.942;2023-07-28T00:06:07;25.50;99.90
15554;DHT22;7878;44.632;10.942;2023-07-28T00:08:33;25.50;99.90
15554;DHT22;7878;44.632;10.942;2023-07-28T00:10:58;25.50;99.90
15554;DHT22;7878;44.632;10.942;2023-07-28T00:13:24;25.50;99.90
15554;DHT22;7878;44.632;10.942;2023-07-28T00:15:50;25.50;99.90
15554;DHT22;7878;44.632;10.942;2023-07-28T00:18:15;25.50;99.90
15554;DHT22;7878;44.632;10.942;2023-07-28T00:20:41;25.40;99.90
15554;DHT22;7878;44.632;10.942;2023-07-28T00:23:06;25.40;99.90
15554;DHT22;7878;44.632;10.942;2023-07-28T00:25:32;25.40;99.90
15554;DHT22;7878;44.632;10.942;2023-07-28T00:27:58;25.40;99.90
15554;DHT22;7878;44.632;10.942;2023-07-28T00:30:23;25.40;99.90
15554;DHT22;7878;44.632;10.942;2023-07-28T00:32:49;25.40;99.90
15554;DHT22;7878;44.632;10.942;2023-07-28T00:35:15;25.30;99.90
15554;DHT22;7878;44.632;10.942;2023-07-28T00:37:40;25.30;99.90
15554;DHT22;7878;44.632;10.942;2023-07-28T00:40:06;25.30;99.90
15554;DHT22;7878;44.632;10.942;2023-07-28T00:42:32;25.20;99.90
15554;DHT22;7878;44.632;10.942;2023-07-28T00:44:58;25.10;99.90
15554;DHT22;7878;44.632;10.942;2023-07-28T00:47:24;25.10;99.90
15554;DHT22;7878;44.632;10.942;2023-07-28T00:49:50;25.00;99.90
15554;DHT22;7878;44.632;10.942;2023-07-28T00:52:15;25.10;99.90
15554;DHT22;7878;44.632;10.942;2023-07-28T00:54:41;25.10;99.90
15554;DHT22;7878;44.632;10.942;2023-07-28T00:57:07;25.00;99.90
15554;DHT22;7878;44.632;10.942;2023-07-28T00:59:33;25.00;99.90
15554;DHT22;7878;44.632;10.942;2023-07-28T01:01:58;25.00;99.90
15554;DHT22;7878;44.632;10.942;2023-07-28T01:04:24;24.90;99.90
15554;DHT22;7878;44.632;10.942;2023-07-28T01:07:15;24.90;99.90
15554;DHT22;7878;44.632;10.942;2023-07-28T01:10:01;25.00;99.90
15554;DHT22;7878;44.632;10.942;2023-07-28T01:12:27;24.90;99.90
15554;DHT22;7878;44.632;10.942;2023-07-28T01:14:53;24.90;99.90
15554;DHT22;7878;44.632;10.942;2023-07-28T01:17:18;24.80;99.90
15554;DHT22;7878;44.632;10.942;2023-07-28T01:19:45;24.80;99.90
15554;DHT22;7878;44.632;10.942;2023-07-28T01:28:03;24.80;99.90
15554;DHT22;7878;44.632;10.942;2023-07-28T01:30:29;24.80;99.90
15554;DHT22;7878;44.632;10.942;2023-07-28T01:32:56;24.70;99.90
15554;DHT22;7878;44.632;10.942;2023-07-28T01:35:23;24.70;99.90
15554;DHT22;7878;44.632;10.942;2023-07-28T01:37:48;24.70;99.90
15554;DHT22;7878;44.632;10.942;2023-07-28T01:40:19;24.80;99.90
15554;DHT22;7878;44.632;10.942;2023-07-28T01:42:46;24.80;99.90
15554;DHT22;7878;44.632;10.942;2023-07-28T01:45:11;24.70;99.90
15554;DHT22;7878;44.632;10.942;2023-07-28T01:47:37;24.70;99.90
15554;DHT22;7878;44.632;10.942;2023-07-28T01:50:03;24.70;99.90
15554;DHT22;7878;44.632;10.942;2023-07-28T01:52:29;24.80;99.90
15554;DHT22;7878;44.632;10.942;2023-07-28T01:54:55;24.80;99.90
15554;DHT22;7878;44.632;10.942;2023-07-28T01:57:20;24.70;99.90
15554;DHT22;7878;44.632;10.942;2023-07-28T01:59:46;24.60;99.90
15554;DHT22;7878;44.632;10.942;2023-07-28T02:02:12;24.70;99.90
15554;DHT22;7878;44.632;10.942;2023-07-28T02:04:38;24.60;99.90
15554;DHT22;7878;44.632;10.942;2023-07-28T02:07:04;24.60;99.90
15554;DHT22;7878;44.632;10.942;2023-07-28T02:09:29;24.50;99.90
15554;DHT22;7878;44.632;10.942;2023-07-28T02:11:55;24.50;99.90
15554;DHT22;7878;44.632;10.942;2023-07-28T02:14:20;24.50;99.90
15554;DHT22;7878;44.632;10.942;2023-07-28T02:16:46;24.50;99.90
15554;DHT22;7878;44.632;10.942;2023-07-28T02:19:12;24.50;99.90
15554;DHT22;7878;44.632;10.942;2023-07-28T02:21:37;24.40;99.90
15554;DHT22;7878;44.632;10.942;2023-07-28T02:24:03;24.40;99.90
15554;DHT22;7878;44.632;10.942;2023-07-28T02:26:29;24.40;99.90
15554;DHT22;7878;44.632;10.942;2023-07-28T02:28:55;24.40;99.90
15554;DHT22;7878;44.632;10.942;2023-07-28T02:31:21;24.40;99.90
15554;DHT22;7878;44.632;10.942;2023-07-28T02:33:47;24.30;99.90
15554;DHT22;7878;44.632;10.942;2023-07-28T02:36:12;24.30;99.90
15554;DHT22;7878;44.632;10.942;2023-07-28T02:38:38;24.30;99.90
15554;DHT22;7878;44.632;10.942;2023-07-28T02:41:03;24.20;99.90
15554;DHT22;7878;44.632;10.942;2023-07-28T02:43:30;24.20;99.90
15554;DHT22;7878;44.632;10.942;2023-07-28T02:45:57;24.20;99.90
15554;DHT22;7878;44.632;10.942;2023-07-28T02:48:23;24.20;99.90
15554;DHT22;7878;44.632;10.942;2023-07-28T02:50:51;24.20;99.90
15554;DHT22;7878;44.632;10.942;2023-07-28T02:53:18;24.30;99.90
15554;DHT22;7878;44.632;10.942;2023-07-28T02:55:44;24.30;99.90
15554;DHT22;7878;44.632;10.942;2023-07-28T02:58:10;24.20;99.90
15554;DHT22;7878;44.632;10.942;2023-07-28T03:00:43;24.20;99.90
15554;DHT22;7878;44.632;10.942;2023-07-28T03:03:11;24.10;99.90
15554;DHT22;7878;44.632;10.942;2023-07-28T03:05:39;24.10;99.90
15554;DHT22;7878;44.632;10.942;2023-07-28T03:08:06;24.10;99.90
15554;DHT22;7878;44.632;10.942;2023-07-28T03:10:32;24.00;99.90
15554;DHT22;7878;44.632;10.942;2023-07-28T03:12:58;24.00;99.90
15554;DHT22;7878;44.632;10.942;2023-07-28T03:15:24;23.90;99.90
15554;DHT22;7878;44.632;10.942;2023-07-28T03:17:50;23.90;99.90
15554;DHT22;7878;44.632;10.942;2023-07-28T03:20:16;23.90;99.90
15554;DHT22;7878;44.632;10.942;2023-07-28T03:22:42;24.00;99.90
15554;DHT22;7878;44.632;10.942;2023-07-28T03:25:08;24.00;99.90
15554;DHT22;7878;44.632;10.942;2023-07-28T03:27:34;24.00;99.90
15554;DHT22;7878;44.632;10.942;2023-07-28T03:30:00;24.00;99.90
15554;DHT22;7878;44.632;10.942;2023-07-28T03:32:26;24.00;99.90
15554;DHT22;7878;44.632;10.942;2023-07-28T03:34:51;24.00;99.90
15554;DHT22;7878;44.632;10.942;2023-07-28T03:37:17;23.90;99.90
15554;DHT22;7878;44.632;10.942;2023-07-28T03:39:43;23.90;99.90
15554;DHT22;7878;44.632;10.942;2023-07-28T03:42:09;24.00;99.90
15554;DHT22;7878;44.632;10.942;2023-07-28T03:44:35;24.00;99.90
15554;DHT22;7878;44.632;10.942;2023-07-28T03:47:03;23.90;99.90
15554;DHT22;7878;44.632;10.942;2023-07-28T03:49:29;23.80;99.90
15554;DHT22;7878;44.632;10.942;2023-07-28T03:51:55;23.80;99.90
15554;DHT22;7878;44.632;10.942;2023-07-28T03:54:21;23.80;99.90
15554;DHT22;7878;44.632;10.942;2023-07-28T03:56:46;23.80;99.90
15554;DHT22;7878;44.632;10.942;2023-07-28T03:59:12;23.80;99.90
15554;DHT22;7878;44.632;10.942;2023-07-28T04:01:38;23.90;99.90
15554;DHT22;7878;44.632;10.942;2023-07-28T04:04:03;23.90;99.90
15554;DHT22;7878;44.632;10.942;2023-07-28T04:06:59;24.00;99.90
15554;DHT22;7878;44.632;10.942;2023-07-28T04:09:24;24.00;99.90
15554;DHT22;7878;44.632;10.942;2023-07-28T04:11:50;23.90;99.90
15554;DHT22;7878;44.632;10.942;2023-07-28T04:14:15;23.90;99.90
15554;DHT22;7878;44.632;10.942;2023-07-28T04:16:41;24.00;99.90
15554;DHT22;7878;44.632;10.942;2023-07-28T04:19:07;24.00;99.90
15554;DHT22;7878;44.632;10.942;2023-07-28T04:21:33;24.10;99.90
15554;DHT22;7878;44.632;10.942;2023-07-28T04:23:58;24.10;99.90
15554;DHT22;7878;44.632;10.942;2023-07-28T04:26:24;24.10;99.90
15554;DHT22;7878;44.632;10.942;2023-07-28T04:28:50;24.10;99.90
15554;DHT22;7878;44.632;10.942;2023-07-28T04:31:16;24.10;99.90
15554;DHT22;7878;44.632;10.942;2023-07-28T04:33:42;24.10;99.90
15554;DHT22;7878;44.632;10.942;2023-07-28T04:36:08;24.20;99.90
15554;DHT22;7878;44.632;10.942;2023-07-28T04:38:34;24.30;99.90
15554;DHT22;7878;44.632;10.942;2023-07-28T04:41:00;24.30;99.90
15554;DHT22;7878;44.632;10.942;2023-07-28T04:43:25;24.30;99.90
15554;DHT22;7878;44.632;10.942;2023-07-28T04:45:51;24.20;99.90
15554;DHT22;7878;44.632;10.942;2023-07-28T04:48:17;24.30;99.90
15554;DHT22;7878;44.632;10.942;2023-07-28T04:50:43;24.30;99.90
15554;DHT22;7878;44.632;10.942;2023-07-28T04:53:09;24.30;99.90
15554;DHT22;7878;44.632;10.942;2023-07-28T04:55:35;24.30;99.90
15554;DHT22;7878;44.632;10.942;2023-07-28T04:58:00;24.30;99.90
15554;DHT22;7878;44.632;10.942;2023-07-28T05:00:26;24.30;99.90
15554;DHT22;7878;44.632;10.942;2023-07-28T05:02:52;24.40;99.90
15554;DHT22;7878;44.632;10.942;2023-07-28T05:05:17;24.30;99.90
15554;DHT22;7878;44.632;10.942;2023-07-28T05:07:43;24.30;99.90
15554;DHT22;7878;44.632;10.942;2023-07-28T05:10:09;24.30;99.90
15554;DHT22;7878;44.632;10.942;2023-07-28T05:12:35;24.30;99.90
15554;DHT22;7878;44.632;10.942;2023-07-28T05:15:01;24.40;99.90
15554;DHT22;7878;44.632;10.942;2023-07-28T05:17:26;24.30;99.90
15554;DHT22;7878;44.632;10.942;2023-07-28T05:19:52;24.30;99.90
15554;DHT22;7878;44.632;10.942;2023-07-28T05:22:18;24.40;99.90
15554;DHT22;7878;44.632;10.942;2023-07-28T05:24:44;24.40;99.90
15554;DHT22;7878;44.632;10.942;2023-07-28T05:27:11;24.40;99.90
15554;DHT22;7878;44.632;10.942;2023-07-28T05:29:37;24.50;99.90
15554;DHT22;7878;44.632;10.942;2023-07-28T05:32:03;24.50;99.90
15554;DHT22;7878;44.632;10.942;2023-07-28T05:34:29;24.50;99.90
15554;DHT22;7878;44.632;10.942;2023-07-28T05:36:55;24.50;99.90
15554;DHT22;7878;44.632;10.942;2023-07-28T05:39:21;24.50;99.90
15554;DHT22;7878;44.632;10.942;2023-07-28T05:41:46;24.60;99.90
15554;DHT22;7878;44.632;10.942;2023-07-28T05:44:12;24.60;99.90
15554;DHT22;7878;44.632;10.942;2023-07-28T05:46:38;24.60;99.90
15554;DHT22;7878;44.632;10.942;2023-07-28T05:49:04;24.70;99.90
15554;DHT22;7878;44.632;10.942;2023-07-28T05:51:30;24.70;99.90
15554;DHT22;7878;44.632;10.942;2023-07-28T05:53:56;24.70;99.90
15554;DHT22;7878;44.632;10.942;2023-07-28T05:56:22;24.60;99.90
15554;DHT22;7878;44.632;10.942;2023-07-28T05:58:48;24.70;99.90
15554;DHT22;7878;44.632;10.942;2023-07-28T06:01:14;24.60;99.90
15554;DHT22;7878;44.632;10.942;2023-07-28T06:03:40;24.60;99.90
15554;DHT22;7878;44.632;10.942;2023-07-28T06:06:06;24.70;99.90
15554;DHT22;7878;44.632;10.942;2023-07-28T06:08:32;24.60;99.90
15554;DHT22;7878;44.632;10.942;2023-07-28T06:10:58;24.60;99.90
15554;DHT22;7878;44.632;10.942;2023-07-28T06:13:24;24.60;99.90
15554;DHT22;7878;44.632;10.942;2023-07-28T06:15:49;24.60;99.90
15554;DHT22;7878;44.632;10.942;2023-07-28T06:18:15;24.70;99.90
15554;DHT22;7878;44.632;10.942;2023-07-28T06:20:45;24.70;99.90
15554;DHT22;7878;44.632;10.942;2023-07-28T06:23:11;24.70;99.90
15554;DHT22;7878;44.632;10.942;2023-07-28T06:25:36;24.80;99.90
15554;DHT22;7878;44.632;10.942;2023-07-28T06:28:08;24.80;99.90
15554;DHT22;7878;44.632;10.942;2023-07-28T06:30:33;24.90;99.90
15554;DHT22;7878;44.632;10.942;2023-07-28T06:32:59;24.90;99.90
15554;DHT22;7878;44.632;10.942;2023-07-28T06:35:24;24.90;99.90
15554;DHT22;7878;44.632;10.942;2023-07-28T06:37:50;24.90;99.90
15554;DHT22;7878;44.632;10.942;2023-07-28T06:40:16;24.90;99.90
15554;DHT22;7878;44.632;10.942;2023-07-28T06:42:41;25.00;99.90
15554;DHT22;7878;44.632;10.942;2023-07-28T06:45:07;25.00;99.90
15554;DHT22;7878;44.632;10.942;2023-07-28T06:47:33;25.00;99.90
15554;DHT22;7878;44.632;10.942;2023-07-28T06:49:59;25.10;99.90
15554;DHT22;7878;44.632;10.942;2023-07-28T06:52:25;25.10;99.90
15554;DHT22;7878;44.632;10.942;2023-07-28T06:54:51;25.10;99.90
15554;DHT22;7878;44.632;10.942;2023-07-28T06:57:16;25.20;99.90
15554;DHT22;7878;44.632;10.942;2023-07-28T06:59:42;25.20;99.90
15554;DHT22;7878;44.632;10.942;2023-07-28T07:02:08;25.20;99.90
15554;DHT22;7878;44.632;10.942;2023-07-28T07:04:34;25.20;99.90
15554;DHT22;7878;44.632;10.942;2023-07-28T07:07:00;25.30;99.90
15554;DHT22;7878;44.632;10.942;2023-07-28T07:09:26;25.30;99.90
15554;DHT22;7878;44.632;10.942;2023-07-28T07:11:51;25.40;99.90
15554;DHT22;7878;44.632;10.942;2023-07-28T07:14:17;25.40;99.90
15554;DHT22;7878;44.632;10.942;2023-07-28T07:16:43;25.40;99.90
15554;DHT22;7878;44.632;10.942;2023-07-28T07:19:09;25.40;99.90
15554;DHT22;7878;44.632;10.942;2023-07-28T07:21:34;25.50;99.90
15554;DHT22;7878;44.632;10.942;2023-07-28T07:24:00;25.50;99.90
15554;DHT22;7878;44.632;10.942;2023-07-28T07:26:27;25.50;99.90
15554;DHT22;7878;44.632;10.942;2023-07-28T07:28:53;25.50;99.90
15554;DHT22;7878;44.632;10.942;2023-07-28T07:31:18;25.40;99.90
15554;DHT22;7878;44.632;10.942;2023-07-28T07:33:44;25.50;99.90
15554;DHT22;7878;44.632;10.942;2023-07-28T07:36:17;25.50;99.90
15554;DHT22;7878;44.632;10.942;2023-07-28T07:38:43;25.60;99.90
15554;DHT22;7878;44.632;10.942;2023-07-28T07:41:15;25.60;99.90
15554;DHT22;7878;44.632;10.942;2023-07-28T07:43:45;25.60;99.90
15554;DHT22;7878;44.632;10.942;2023-07-28T07:46:11;25.50;99.90
15554;DHT22;7878;44.632;10.942;2023-07-28T07:48:36;25.60;99.90
15554;DHT22;7878;44.632;10.942;2023-07-28T07:51:02;25.60;99.90
15554;DHT22;7878;44.632;10.942;2023-07-28T07:53:28;25.60;99.90
15554;DHT22;7878;44.632;10.942;2023-07-28T07:55:53;25.60;99.90
15554;DHT22;7878;44.632;10.942;2023-07-28T07:58:19;25.70;99.90
15554;DHT22;7878;44.632;10.942;2023-07-28T08:00:45;25.70;99.90
15554;DHT22;7878;44.632;10.942;2023-07-28T08:03:11;25.80;99.90
15554;DHT22;7878;44.632;10.942;2023-07-28T08:05:36;25.80;99.90
15554;DHT22;7878;44.632;10.942;2023-07-28T08:08:03;25.90;99.90
15554;DHT22;7878;44.632;10.942;2023-07-28T08:10:28;25.90;99.90
15554;DHT22;7878;44.632;10.942;2023-07-28T08:12:55;25.90;99.90
15554;DHT22;7878;44.632;10.942;2023-07-28T08:15:21;25.90;99.90
15554;DHT22;7878;44.632;10.942;2023-07-28T08:17:46;26.00;99.90
15554;DHT22;7878;44.632;10.942;2023-07-28T08:20:12;25.90;99.90
15554;DHT22;7878;44.632;10.942;2023-07-28T08:22:38;26.00;99.90
15554;DHT22;7878;44.632;10.942;2023-07-28T08:25:04;26.00;99.90
15554;DHT22;7878;44.632;10.942;2023-07-28T08:27:30;26.00;99.90
15554;DHT22;7878;44.632;10.942;2023-07-28T08:29:56;26.00;99.90
15554;DHT22;7878;44.632;10.942;2023-07-28T08:32:22;26.10;99.90
15554;DHT22;7878;44.632;10.942;2023-07-28T08:34:48;26.10;99.90
15554;DHT22;7878;44.632;10.942;2023-07-28T08:37:14;26.20;99.90
15554;DHT22;7878;44.632;10.942;2023-07-28T08:39:39;26.20;99.90
15554;DHT22;7878;44.632;10.942;2023-07-28T08:42:05;26.20;99.90
15554;DHT22;7878;44.632;10.942;2023-07-28T08:44:34;26.20;99.90
15554;DHT22;7878;44.632;10.942;2023-07-28T08:47:02;26.20;99.90
15554;DHT22;7878;44.632;10.942;2023-07-28T08:49:32;26.20;99.90
15554;DHT22;7878;44.632;10.942;2023-07-28T08:52:02;26.20;99.90
15554;DHT22;7878;44.632;10.942;2023-07-28T08:54:29;26.20;99.90
15554;DHT22;7878;44.632;10.942;2023-07-28T08:56:55;26.20;99.90
15554;DHT22;7878;44.632;10.942;2023-07-28T08:59:24;26.20;99.90
15554;DHT22;7878;44.632;10.942;2023-07-28T09:01:52;26.20;99.90
15554;DHT22;7878;44.632;10.942;2023-07-28T09:04:18;26.30;99.90
15554;DHT22;7878;44.632;10.942;2023-07-28T09:06:48;26.50;99.90
15554;DHT22;7878;44.632;10.942;2023-07-28T09:09:14;26.50;99.90
15554;DHT22;7878;44.632;10.942;2023-07-28T09:11:45;26.60;99.90
15554;DHT22;7878;44.632;10.942;2023-07-28T09:14:15;26.60;99.90
15554;DHT22;7878;44.632;10.942;2023-07-28T09:16:42;26.70;99.90
15554;DHT22;7878;44.632;10.942;2023-07-28T09:19:09;26.90;99.90
15554;DHT22;7878;44.632;10.942;2023-07-28T09:21:36;27.00;99.90
15554;DHT22;7878;44.632;10.942;2023-07-28T09:24:13;27.10;99.90
15554;DHT22;7878;44.632;10.942;2023-07-28T09:26:45;27.30;99.90
15554;DHT22;7878;44.632;10.942;2023-07-28T09:31:40;27.50;99.90
15554;DHT22;7878;44.632;10.942;2023-07-28T09:34:10;27.60;99.90
15554;DHT22;7878;44.632;10.942;2023-07-28T09:36:36;27.80;99.90
15554;DHT22;7878;44.632;10.942;2023-07-28T09:39:04;28.10;99.90
15554;DHT22;7878;44.632;10.942;2023-07-28T09:41:35;28.60;99.90
15554;DHT22;7878;44.632;10.942;2023-07-28T09:44:01;28.50;99.90
15554;DHT22;7878;44.632;10.942;2023-07-28T09:46:28;28.60;99.90
15554;DHT22;7878;44.632;10.942;2023-07-28T09:48:57;28.50;99.90
15554;DHT22;7878;44.632;10.942;2023-07-28T09:51:30;28.50;99.90
15554;DHT22;7878;44.632;10.942;2023-07-28T09:54:02;28.50;99.90
15554;DHT22;7878;44.632;10.942;2023-07-28T09:56:29;28.50;99.90
15554;DHT22;7878;44.632;10.942;2023-07-28T09:58:56;28.70;99.90
15554;DHT22;7878;44.632;10.942;2023-07-28T10:01:23;28.90;99.90
15554;DHT22;7878;44.632;10.942;2023-07-28T10:03:50;28.70;99.90
15554;DHT22;7878;44.632;10.942;2023-07-28T10:06:17;28.80;99.90
15554;DHT22;7878;44.632;10.942;2023-07-28T10:08:45;28.80;99.90
15554;DHT22;7878;44.632;10.942;2023-07-28T10:11:12;28.70;99.90
15554;DHT22;7878;44.632;10.942;2023-07-28T10:13:42;28.90;99.90
15554;DHT22;7878;44.632;10.942;2023-07-28T10:16:09;28.90;99.90
15554;DHT22;7878;44.632;10.942;2023-07-28T10:18:35;28.80;99.90
15554;DHT22;7878;44.632;10.942;2023-07-28T10:21:06;28.70;99.90
15554;DHT22;7878;44.632;10.942;2023-07-28T10:23:34;29.10;99.90
15554;DHT22;7878;44.632;10.942;2023-07-28T10:26:03;29.00;99.90
15554;DHT22;7878;44.632;10.942;2023-07-28T10:28:38;28.80;99.90
15554;DHT22;7878;44.632;10.942;2023-07-28T10:31:07;28.70;99.90
15554;DHT22;7878;44.632;10.942;2023-07-28T10:33:44;28.60;99.90
15554;DHT22;7878;44.632;10.942;2023-07-28T10:41:29;28.80;99.90
15554;DHT22;7878;44.632;10.942;2023-07-28T10:43:56;28.90;99.90
15554;DHT22;7878;44.632;10.942;2023-07-28T10:46:22;28.90;99.90
15554;DHT22;7878;44.632;10.942;2023-07-28T10:48:49;29.00;99.90
15554;DHT22;7878;44.632;10.942;2023-07-28T10:51:26;29.10;99.90
15554;DHT22;7878;44.632;10.942;2023-07-28T10:53:59;29.10;99.90
15554;DHT22;7878;44.632;10.942;2023-07-28T10:56:25;29.20;99.90
15554;DHT22;7878;44.632;10.942;2023-07-28T10:58:58;29.20;99.90
15554;DHT22;7878;44.632;10.942;2023-07-28T11:01:34;29.20;99.90
15554;DHT22;7878;44.632;10.942;2023-07-28T11:04:14;29.20;99.90
15554;DHT22;7878;44.632;10.942;2023-07-28T11:06:42;29.40;99.90
15554;DHT22;7878;44.632;10.942;2023-07-28T11:09:09;29.50;99.90
15554;DHT22;7878;44.632;10.942;2023-07-28T11:11:38;29.60;99.90
15554;DHT22;7878;44.632;10.942;2023-07-28T11:14:08;29.60;99.90
15554;DHT22;7878;44.632;10.942;2023-07-28T11:16:36;29.80;99.90
15554;DHT22;7878;44.632;10.942;2023-07-28T11:19:09;29.90;99.90
15554;DHT22;7878;44.632;10.942;2023-07-28T11:21:42;30.10;99.90
15554;DHT22;7878;44.632;10.942;2023-07-28T11:24:09;30.20;99.90
15554;DHT22;7878;44.632;10.942;2023-07-28T11:26:36;30.30;99.90
15554;DHT22;7878;44.632;10.942;2023-07-28T11:29:03;30.40;99.90
15554;DHT22;7878;44.632;10.942;2023-07-28T11:31:29;30.40;99.90
15554;DHT22;7878;44.632;10.942;2023-07-28T11:33:55;30.50;99.90
15554;DHT22;7878;44.632;10.942;2023-07-28T11:36:24;30.60;99.90
15554;DHT22;7878;44.632;10.942;2023-07-28T11:38:51;30.60;99.90
15554;DHT22;7878;44.632;10.942;2023-07-28T11:41:19;30.90;99.90
15554;DHT22;7878;44.632;10.942;2023-07-28T11:43:46;30.80;99.90
15554;DHT22;7878;44.632;10.942;2023-07-28T11:46:52;30.60;99.90
15554;DHT22;7878;44.632;10.942;2023-07-28T11:49:21;30.60;98.30
15554;DHT22;7878;44.632;10.942;2023-07-28T11:51:52;30.60;99.90
15554;DHT22;7878;44.632;10.942;2023-07-28T11:54:21;30.50;99.90
15554;DHT22;7878;44.632;10.942;2023-07-28T11:56:49;30.50;99.60
15554;DHT22;7878;44.632;10.942;2023-07-28T11:59:16;30.50;99.90
15554;DHT22;7878;44.632;10.942;2023-07-28T12:02:00;30.60;99.90
15554;DHT22;7878;44.632;10.942;2023-07-28T12:04:36;30.60;98.40
15554;DHT22;7878;44.632;10.942;2023-07-28T12:07:13;30.60;99.70
15554;DHT22;7878;44.632;10.942;2023-07-28T12:12:12;30.60;99.40
15554;DHT22;7878;44.632;10.942;2023-07-28T12:14:38;30.60;99.90
15554;DHT22;7878;44.632;10.942;2023-07-28T12:17:22;30.70;99.90
15554;DHT22;7878;44.632;10.942;2023-07-28T12:20:05;30.70;97.60
15554;DHT22;7878;44.632;10.942;2023-07-28T12:22:37;30.70;98.60
15554;DHT22;7878;44.632;10.942;2023-07-28T12:25:04;30.70;99.90
15554;DHT22;7878;44.632;10.942;2023-07-28T12:27:30;30.70;99.90
15554;DHT22;7878;44.632;10.942;2023-07-28T12:29:56;30.60;99.90
15554;DHT22;7878;44.632;10.942;2023-07-28T12:32:22;30.60;99.90
15554;DHT22;7878;44.632;10.942;2023-07-28T12:34:50;30.60;99.60
15554;DHT22;7878;44.632;10.942;2023-07-28T12:37:17;30.60;99.80
15554;DHT22;7878;44.632;10.942;2023-07-28T12:39:43;30.50;99.90
15554;DHT22;7878;44.632;10.942;2023-07-28T12:42:10;30.50;99.90
15554;DHT22;7878;44.632;10.942;2023-07-28T12:44:37;30.60;99.90
15554;DHT22;7878;44.632;10.942;2023-07-28T12:47:03;30.60;99.90
15554;DHT22;7878;44.632;10.942;2023-07-28T12:49:29;30.60;99.90
15554;DHT22;7878;44.632;10.942;2023-07-28T12:51:58;30.50;99.20
15554;DHT22;7878;44.632;10.942;2023-07-28T12:54:25;30.50;99.60
15554;DHT22;7878;44.632;10.942;2023-07-28T12:56:51;30.60;99.90
15554;DHT22;7878;44.632;10.942;2023-07-28T12:59:17;30.60;99.90
15554;DHT22;7878;44.632;10.942;2023-07-28T13:01:43;30.60;99.90
15554;DHT22;7878;44.632;10.942;2023-07-28T13:04:08;30.70;99.90
15554;DHT22;7878;44.632;10.942;2023-07-28T13:06:34;30.70;99.90
15554;DHT22;7878;44.632;10.942;2023-07-28T13:09:00;30.70;99.70
15554;DHT22;7878;44.632;10.942;2023-07-28T13:11:25;30.60;99.80
15554;DHT22;7878;44.632;10.942;2023-07-28T13:13:51;30.50;99.80
15554;DHT22;7878;44.632;10.942;2023-07-28T13:16:17;30.50;99.60
15554;DHT22;7878;44.632;10.942;2023-07-28T13:18:43;30.50;99.90
15554;DHT22;7878;44.632;10.942;2023-07-28T13:21:09;30.50;99.50
15554;DHT22;7878;44.632;10.942;2023-07-28T13:23:38;30.50;99.70
15554;DHT22;7878;44.632;10.942;2023-07-28T13:26:04;30.50;99.90
15554;DHT22;7878;44.632;10.942;2023-07-28T13:28:30;30.50;99.80
15554;DHT22;7878;44.632;10.942;2023-07-28T13:30:56;30.50;99.70
15554;DHT22;7878;44.632;10.942;2023-07-28T13:33:22;30.50;99.60
15554;DHT22;7878;44.632;10.942;2023-07-28T13:35:48;30.50;99.80
15554;DHT22;7878;44.632;10.942;2023-07-28T13:38:14;30.60;99.90
15554;DHT22;7878;44.632;10.942;2023-07-28T13:40:39;30.50;98.90
15554;DHT22;7878;44.632;10.942;2023-07-28T13:43:05;30.50;99.70
15554;DHT22;7878;44.632;10.942;2023-07-28T13:45:31;30.50;99.70
15554;DHT22;7878;44.632;10.942;2023-07-28T13:47:57;30.60;99.80
15554;DHT22;7878;44.632;10.942;2023-07-28T13:50:22;30.60;99.40
15554;DHT22;7878;44.632;10.942;2023-07-28T13:52:49;30.50;99.10
15554;DHT22;7878;44.632;10.942;2023-07-28T13:55:14;30.50;99.70
15554;DHT22;7878;44.632;10.942;2023-07-28T13:57:40;30.50;99.60
15554;DHT22;7878;44.632;10.942;2023-07-28T14:00:07;30.50;99.70
15554;DHT22;7878;44.632;10.942;2023-07-28T14:02:36;30.60;99.30
15554;DHT22;7878;44.632;10.942;2023-07-28T14:05:02;30.60;99.00
15554;DHT22;7878;44.632;10.942;2023-07-28T14:07:29;30.60;98.30
15554;DHT22;7878;44.632;10.942;2023-07-28T14:09:54;30.50;98.80
15554;DHT22;7878;44.632;10.942;2023-07-28T14:12:20;30.60;99.30
15554;DHT22;7878;44.632;10.942;2023-07-28T14:14:46;30.50;99.70
15554;DHT22;7878;44.632;10.942;2023-07-28T14:17:11;30.50;99.70
15554;DHT22;7878;44.632;10.942;2023-07-28T14:19:40;30.50;99.90
15554;DHT22;7878;44.632;10.942;2023-07-28T14:22:06;30.60;99.20
15554;DHT22;7878;44.632;10.942;2023-07-28T14:24:31;30.70;99.80
15554;DHT22;7878;44.632;10.942;2023-07-28T14:26:57;30.70;99.20
15554;DHT22;7878;44.632;10.942;2023-07-28T14:29:23;30.70;99.10
15554;DHT22;7878;44.632;10.942;2023-07-28T14:31:49;30.70;99.40
15554;DHT22;7878;44.632;10.942;2023-07-28T14:34:15;30.70;98.10
15554;DHT22;7878;44.632;10.942;2023-07-28T14:36:40;30.80;99.40
15554;DHT22;7878;44.632;10.942;2023-07-28T14:39:06;30.90;99.20
15554;DHT22;7878;44.632;10.942;2023-07-28T14:41:32;30.90;98.50
15554;DHT22;7878;44.632;10.942;2023-07-28T14:43:58;30.80;98.90
15554;DHT22;7878;44.632;10.942;2023-07-28T14:46:24;30.80;99.20
15554;DHT22;7878;44.632;10.942;2023-07-28T14:48:53;30.80;99.40
15554;DHT22;7878;44.632;10.942;2023-07-28T14:51:19;30.90;98.60
15554;DHT22;7878;44.632;10.942;2023-07-28T14:53:45;30.90;99.30
15554;DHT22;7878;44.632;10.942;2023-07-28T14:56:13;30.90;99.10
15554;DHT22;7878;44.632;10.942;2023-07-28T14:58:39;30.90;99.10
15554;DHT22;7878;44.632;10.942;2023-07-28T15:01:11;30.90;98.30
15554;DHT22;7878;44.632;10.942;2023-07-28T15:03:36;31.00;99.00
15554;DHT22;7878;44.632;10.942;2023-07-28T15:06:02;30.90;99.30
15554;DHT22;7878;44.632;10.942;2023-07-28T15:08:29;30.90;99.20
15554;DHT22;7878;44.632;10.942;2023-07-28T15:10:56;31.00;99.10
15554;DHT22;7878;44.632;10.942;2023-07-28T15:13:22;31.00;99.10
15554;DHT22;7878;44.632;10.942;2023-07-28T15:15:48;31.00;99.00
15554;DHT22;7878;44.632;10.942;2023-07-28T15:18:14;31.00;98.60
15554;DHT22;7878;44.632;10.942;2023-07-28T15:20:41;31.00;99.20
15554;DHT22;7878;44.632;10.942;2023-07-28T15:23:07;31.00;98.90
15554;DHT22;7878;44.632;10.942;2023-07-28T15:25:32;31.00;97.90
15554;DHT22;7878;44.632;10.942;2023-07-28T15:27:58;31.00;98.30
15554;DHT22;7878;44.632;10.942;2023-07-28T15:30:24;31.00;99.00
15554;DHT22;7878;44.632;10.942;2023-07-28T15:32:50;31.00;99.10
15554;DHT22;7878;44.632;10.942;2023-07-28T15:35:16;31.00;98.70
15554;DHT22;7878;44.632;10.942;2023-07-28T15:37:42;30.90;98.50
15554;DHT22;7878;44.632;10.942;2023-07-28T15:40:08;30.90;99.00
15554;DHT22;7878;44.632;10.942;2023-07-28T15:42:33;30.90;99.00
15554;DHT22;7878;44.632;10.942;2023-07-28T15:44:59;30.90;98.70